sensor_id;sensor_type;location;lat;lon;timestamp;P1;durP1;ratioP1;P2;durP2;ratioP2
46411;SDS011;32113;42.012;24.870;2024-03-22T00:01:39;5.63;;;3.72;;
46411;SDS011;32113;42.012;24.870;2024-03-22T00:04:04;6.85;;;3.97;;
46411;SDS011;32113;42.012;24.870;2024-03-22T00:06:30;5.53;;;3.58;;
46411;SDS011;32113;42.012;24.870;2024-03-22T00:08:55;7.95;;;4.00;;
46411;SDS011;32113;42.012;24.870;2024-03-22T00:11:20;7.30;;;4.05;;
46411;SDS011;32113;42.012;24.870;2024-03-22T00:13:46;7.18;;;4.03;;
46411;SDS011;32113;42.012;24.870;2024-03-22T00:16:11;5.65;;;2.92;;
46411;SDS011;32113;42.012;24.870;2024-03-22T00:18:36;8.57;;;3.42;;
46411;SDS011;32113;42.012;24.870;2024-03-22T00:21:02;7.05;;;3.60;;
46411;SDS011;32113;42.012;24.870;2024-03-22T00:23:27;4.20;;;3.15;;
46411;SDS011;32113;42.012;24.870;2024-03-22T00:25:54;4.97;;;3.40;;
46411;SDS011;32113;42.012;24.870;2024-03-22T00:28:19;5.60;;;3.55;;
46411;SDS011;32113;42.012;24.870;2024-03-22T00:30:45;12.98;;;6.45;;
46411;SDS011;32113;42.012;24.870;2024-03-22T00:33:10;13.10;;;9.57;;
46411;SDS011;32113;42.012;24.870;2024-03-22T00:35:36;16.63;;;10.43;;
46411;SDS011;32113;42.012;24.870;2024-03-22T00:38:01;17.65;;;11.60;;
46411;SDS011;32113;42.012;24.870;2024-03-22T00:40:26;21.63;;;13.32;;
46411;SDS011;32113;42.012;24.870;2024-03-22T00:42:52;44.28;;;23.90;;
46411;SDS011;32113;42.012;24.870;2024-03-22T00:45:17;28.70;;;17.98;;
46411;SDS011;32113;42.012;24.870;2024-03-22T00:47:43;21.95;;;12.77;;
46411;SDS011;32113;42.012;24.870;2024-03-22T00:50:08;18.70;;;12.10;;
46411;SDS011;32113;42.012;24.870;2024-03-22T00:52:34;25.95;;;14.07;;
46411;SDS011;32113;42.012;24.870;2024-03-22T00:54:59;22.40;;;13.45;;
46411;SDS011;32113;42.012;24.870;2024-03-22T00:57:25;24.10;;;14.65;;
46411;SDS011;32113;42.012;24.870;2024-03-22T00:59:50;16.50;;;12.55;;
46411;SDS011;32113;42.012;24.870;2024-03-22T01:02:15;15.75;;;12.20;;
46411;SDS011;32113;42.012;24.870;2024-03-22T01:04:41;19.38;;;13.60;;
46411;SDS011;32113;42.012;24.870;2024-03-22T01:07:06;26.33;;;15.52;;
46411;SDS011;32113;42.012;24.870;2024-03-22T01:09:31;19.35;;;14.23;;
46411;SDS011;32113;42.012;24.870;2024-03-22T01:11:57;20.05;;;13.23;;
46411;SDS011;32113;42.012;24.870;2024-03-22T01:14:22;19.45;;;12.65;;
46411;SDS011;32113;42.012;24.870;2024-03-22T01:16:48;16.98;;;12.60;;
46411;SDS011;32113;42.012;24.870;2024-03-22T01:19:13;17.73;;;11.57;;
46411;SDS011;32113;42.012;24.870;2024-03-22T01:21:38;17.08;;;11.73;;
46411;SDS011;32113;42.012;24.870;2024-03-22T01:24:04;19.17;;;11.40;;
46411;SDS011;32113;42.012;24.870;2024-03-22T01:26:29;17.95;;;12.57;;
46411;SDS011;32113;42.012;24.870;2024-03-22T01:28:54;21.42;;;12.10;;
46411;SDS011;32113;42.012;24.870;2024-03-22T01:31:20;18.45;;;12.27;;
46411;SDS011;32113;42.012;24.870;2024-03-22T01:33:45;23.55;;;17.90;;
46411;SDS011;32113;42.012;24.870;2024-03-22T01:36:10;28.73;;;17.45;;
46411;SDS011;32113;42.012;24.870;2024-03-22T01:38:36;19.85;;;14.27;;
46411;SDS011;32113;42.012;24.870;2024-03-22T01:41:01;21.17;;;13.68;;
46411;SDS011;32113;42.012;24.870;2024-03-22T01:43:27;23.52;;;13.18;;
46411;SDS011;32113;42.012;24.870;2024-03-22T01:45:52;21.85;;;14.30;;
46411;SDS011;32113;42.012;24.870;2024-03-22T01:48:17;18.08;;;13.43;;
46411;SDS011;32113;42.012;24.870;2024-03-22T01:50:43;24.90;;;13.88;;
46411;SDS011;32113;42.012;24.870;2024-03-22T01:53:08;19.85;;;13.73;;
46411;SDS011;32113;42.012;24.870;2024-03-22T01:55:34;18.30;;;14.25;;
46411;SDS011;32113;42.012;24.870;2024-03-22T01:58:00;18.55;;;13.27;;
46411;SDS011;32113;42.012;24.870;2024-03-22T02:00:25;21.80;;;14.52;;
46411;SDS011;32113;42.012;24.870;2024-03-22T02:02:50;18.35;;;13.55;;
46411;SDS011;32113;42.012;24.870;2024-03-22T02:05:17;20.98;;;14.35;;
46411;SDS011;32113;42.012;24.870;2024-03-22T02:07:46;19.13;;;14.15;;
46411;SDS011;32113;42.012;24.870;2024-03-22T02:10:12;21.25;;;14.15;;
46411;SDS011;32113;42.012;24.870;2024-03-22T02:12:38;18.27;;;14.18;;
46411;SDS011;32113;42.012;24.870;2024-03-22T02:15:04;20.23;;;13.70;;
46411;SDS011;32113;42.012;24.870;2024-03-22T02:17:29;20.50;;;13.88;;
46411;SDS011;32113;42.012;24.870;2024-03-22T02:19:55;19.10;;;13.13;;
46411;SDS011;32113;42.012;24.870;2024-03-22T02:22:20;18.90;;;13.68;;
46411;SDS011;32113;42.012;24.870;2024-03-22T02:24:46;19.73;;;13.82;;
46411;SDS011;32113;42.012;24.870;2024-03-22T02:27:11;29.15;;;13.90;;
46411;SDS011;32113;42.012;24.870;2024-03-22T02:29:36;26.02;;;15.07;;
46411;SDS011;32113;42.012;24.870;2024-03-22T02:32:02;22.63;;;14.63;;
46411;SDS011;32113;42.012;24.870;2024-03-22T02:34:28;29.73;;;15.65;;
46411;SDS011;32113;42.012;24.870;2024-03-22T02:36:54;25.17;;;15.63;;
46411;SDS011;32113;42.012;24.870;2024-03-22T02:39:19;25.00;;;15.80;;
46411;SDS011;32113;42.012;24.870;2024-03-22T02:41:44;22.77;;;16.27;;
46411;SDS011;32113;42.012;24.870;2024-03-22T02:44:10;22.75;;;15.82;;
46411;SDS011;32113;42.012;24.870;2024-03-22T02:46:35;18.40;;;13.07;;
46411;SDS011;32113;42.012;24.870;2024-03-22T02:49:00;22.83;;;12.65;;
46411;SDS011;32113;42.012;24.870;2024-03-22T02:51:26;18.42;;;11.60;;
46411;SDS011;32113;42.012;24.870;2024-03-22T02:53:51;23.17;;;12.18;;
46411;SDS011;32113;42.012;24.870;2024-03-22T02:56:16;20.30;;;12.85;;
46411;SDS011;32113;42.012;24.870;2024-03-22T02:58:42;17.33;;;11.45;;
46411;SDS011;32113;42.012;24.870;2024-03-22T03:01:07;15.15;;;11.65;;
46411;SDS011;32113;42.012;24.870;2024-03-22T03:03:33;18.83;;;10.68;;
46411;SDS011;32113;42.012;24.870;2024-03-22T03:05:59;16.40;;;10.02;;
46411;SDS011;32113;42.012;24.870;2024-03-22T03:08:24;17.35;;;11.13;;
46411;SDS011;32113;42.012;24.870;2024-03-22T03:10:49;19.88;;;11.50;;
46411;SDS011;32113;42.012;24.870;2024-03-22T03:13:15;21.63;;;12.32;;
46411;SDS011;32113;42.012;24.870;2024-03-22T03:15:40;14.15;;;9.77;;
46411;SDS011;32113;42.012;24.870;2024-03-22T03:18:06;18.83;;;11.30;;
46411;SDS011;32113;42.012;24.870;2024-03-22T03:20:31;18.20;;;12.32;;
46411;SDS011;32113;42.012;24.870;2024-03-22T03:22:56;18.08;;;11.35;;
46411;SDS011;32113;42.012;24.870;2024-03-22T03:25:24;23.42;;;12.90;;
46411;SDS011;32113;42.012;24.870;2024-03-22T03:27:50;24.80;;;14.80;;
46411;SDS011;32113;42.012;24.870;2024-03-22T03:30:15;28.13;;;14.85;;
46411;SDS011;32113;42.012;24.870;2024-03-22T03:32:41;25.85;;;14.23;;
46411;SDS011;32113;42.012;24.870;2024-03-22T03:35:06;26.23;;;14.43;;
46411;SDS011;32113;42.012;24.870;2024-03-22T03:37:32;22.40;;;14.68;;
46411;SDS011;32113;42.012;24.870;2024-03-22T03:39:57;23.10;;;14.35;;
46411;SDS011;32113;42.012;24.870;2024-03-22T03:42:22;21.80;;;12.80;;
46411;SDS011;32113;42.012;24.870;2024-03-22T03:44:48;23.85;;;13.15;;
46411;SDS011;32113;42.012;24.870;2024-03-22T03:47:13;17.95;;;12.27;;
46411;SDS011;32113;42.012;24.870;2024-03-22T03:49:39;21.85;;;12.90;;
46411;SDS011;32113;42.012;24.870;2024-03-22T03:52:04;20.42;;;12.07;;
46411;SDS011;32113;42.012;24.870;2024-03-22T03:54:30;13.32;;;9.07;;
46411;SDS011;32113;42.012;24.870;2024-03-22T03:56:55;13.70;;;9.55;;
46411;SDS011;32113;42.012;24.870;2024-03-22T03:59:20;10.77;;;6.85;;
46411;SDS011;32113;42.012;24.870;2024-03-22T04:01:46;12.35;;;6.80;;
46411;SDS011;32113;42.012;24.870;2024-03-22T04:04:12;12.55;;;6.43;;
46411;SDS011;32113;42.012;24.870;2024-03-22T04:06:38;10.65;;;5.78;;
46411;SDS011;32113;42.012;24.870;2024-03-22T04:09:03;11.23;;;5.47;;
46411;SDS011;32113;42.012;24.870;2024-03-22T04:11:30;9.73;;;4.97;;
46411;SDS011;32113;42.012;24.870;2024-03-22T04:13:55;10.45;;;4.75;;
46411;SDS011;32113;42.012;24.870;2024-03-22T04:16:20;7.78;;;4.65;;
46411;SDS011;32113;42.012;24.870;2024-03-22T04:18:46;7.78;;;4.28;;
46411;SDS011;32113;42.012;24.870;2024-03-22T04:21:11;8.10;;;3.90;;
46411;SDS011;32113;42.012;24.870;2024-03-22T04:23:37;8.80;;;4.22;;
46411;SDS011;32113;42.012;24.870;2024-03-22T04:26:02;5.32;;;3.65;;
46411;SDS011;32113;42.012;24.870;2024-03-22T04:28:28;5.18;;;3.88;;
46411;SDS011;32113;42.012;24.870;2024-03-22T04:31:01;8.35;;;3.95;;
46411;SDS011;32113;42.012;24.870;2024-03-22T04:33:31;6.78;;;3.90;;
46411;SDS011;32113;42.012;24.870;2024-03-22T04:35:57;5.57;;;3.58;;
46411;SDS011;32113;42.012;24.870;2024-03-22T04:38:24;9.25;;;3.90;;
46411;SDS011;32113;42.012;24.870;2024-03-22T04:40:50;6.38;;;3.95;;
46411;SDS011;32113;42.012;24.870;2024-03-22T04:43:15;9.05;;;3.80;;
46411;SDS011;32113;42.012;24.870;2024-03-22T04:45:42;7.90;;;4.70;;
46411;SDS011;32113;42.012;24.870;2024-03-22T04:48:08;11.15;;;4.90;;
46411;SDS011;32113;42.012;24.870;2024-03-22T04:50:34;15.50;;;4.38;;
46411;SDS011;32113;42.012;24.870;2024-03-22T04:53:00;8.05;;;4.82;;
46411;SDS011;32113;42.012;24.870;2024-03-22T04:55:26;7.45;;;4.10;;
46411;SDS011;32113;42.012;24.870;2024-03-22T04:57:51;9.23;;;5.47;;
46411;SDS011;32113;42.012;24.870;2024-03-22T05:00:17;7.30;;;4.63;;
46411;SDS011;32113;42.012;24.870;2024-03-22T05:02:43;6.82;;;4.40;;
46411;SDS011;32113;42.012;24.870;2024-03-22T05:05:08;5.88;;;3.60;;
46411;SDS011;32113;42.012;24.870;2024-03-22T05:07:34;5.50;;;4.03;;
46411;SDS011;32113;42.012;24.870;2024-03-22T05:09:59;8.07;;;3.80;;
46411;SDS011;32113;42.012;24.870;2024-03-22T05:12:24;8.10;;;4.20;;
46411;SDS011;32113;42.012;24.870;2024-03-22T05:14:50;12.18;;;4.20;;
46411;SDS011;32113;42.012;24.870;2024-03-22T05:17:15;7.95;;;4.40;;
46411;SDS011;32113;42.012;24.870;2024-03-22T05:19:40;8.52;;;4.00;;
46411;SDS011;32113;42.012;24.870;2024-03-22T05:22:06;11.90;;;4.57;;
46411;SDS011;32113;42.012;24.870;2024-03-22T05:24:31;14.43;;;4.35;;
46411;SDS011;32113;42.012;24.870;2024-03-22T05:26:57;7.22;;;4.38;;
46411;SDS011;32113;42.012;24.870;2024-03-22T05:29:23;9.50;;;4.90;;
46411;SDS011;32113;42.012;24.870;2024-03-22T05:31:49;8.38;;;4.53;;
46411;SDS011;32113;42.012;24.870;2024-03-22T05:34:16;10.57;;;5.00;;
46411;SDS011;32113;42.012;24.870;2024-03-22T05:36:42;11.05;;;4.43;;
46411;SDS011;32113;42.012;24.870;2024-03-22T05:39:07;9.07;;;4.95;;
46411;SDS011;32113;42.012;24.870;2024-03-22T05:41:33;6.95;;;4.35;;
46411;SDS011;32113;42.012;24.870;2024-03-22T05:43:58;6.93;;;4.53;;
46411;SDS011;32113;42.012;24.870;2024-03-22T05:46:24;10.70;;;4.13;;
46411;SDS011;32113;42.012;24.870;2024-03-22T05:48:49;8.38;;;4.38;;
46411;SDS011;32113;42.012;24.870;2024-03-22T05:51:17;11.80;;;4.20;;
46411;SDS011;32113;42.012;24.870;2024-03-22T05:53:42;8.32;;;3.95;;
46411;SDS011;32113;42.012;24.870;2024-03-22T05:56:07;8.38;;;4.22;;
46411;SDS011;32113;42.012;24.870;2024-03-22T05:58:34;10.80;;;4.20;;
46411;SDS011;32113;42.012;24.870;2024-03-22T06:00:59;8.10;;;4.50;;
46411;SDS011;32113;42.012;24.870;2024-03-22T06:03:24;9.32;;;3.95;;
46411;SDS011;32113;42.012;24.870;2024-03-22T06:05:50;10.65;;;4.10;;
46411;SDS011;32113;42.012;24.870;2024-03-22T06:08:20;7.35;;;3.88;;
46411;SDS011;32113;42.012;24.870;2024-03-22T06:10:45;8.55;;;4.30;;
46411;SDS011;32113;42.012;24.870;2024-03-22T06:13:10;10.52;;;4.03;;
46411;SDS011;32113;42.012;24.870;2024-03-22T06:15:36;10.18;;;4.20;;
46411;SDS011;32113;42.012;24.870;2024-03-22T06:18:01;7.25;;;3.90;;
46411;SDS011;32113;42.012;24.870;2024-03-22T06:20:27;8.45;;;4.60;;
46411;SDS011;32113;42.012;24.870;2024-03-22T06:22:52;10.95;;;4.13;;
46411;SDS011;32113;42.012;24.870;2024-03-22T06:25:17;8.15;;;4.38;;
46411;SDS011;32113;42.012;24.870;2024-03-22T06:27:43;9.82;;;4.28;;
46411;SDS011;32113;42.012;24.870;2024-03-22T06:30:08;5.95;;;3.97;;
46411;SDS011;32113;42.012;24.870;2024-03-22T06:32:34;10.63;;;4.88;;
46411;SDS011;32113;42.012;24.870;2024-03-22T06:34:59;6.20;;;4.18;;
46411;SDS011;32113;42.012;24.870;2024-03-22T06:37:25;7.82;;;4.63;;
46411;SDS011;32113;42.012;24.870;2024-03-22T06:39:50;7.55;;;4.10;;
46411;SDS011;32113;42.012;24.870;2024-03-22T06:42:15;5.65;;;3.70;;
46411;SDS011;32113;42.012;24.870;2024-03-22T06:44:41;7.18;;;4.25;;
46411;SDS011;32113;42.012;24.870;2024-03-22T06:47:06;7.50;;;4.50;;
46411;SDS011;32113;42.012;24.870;2024-03-22T06:49:32;5.40;;;3.67;;
46411;SDS011;32113;42.012;24.870;2024-03-22T06:51:57;7.95;;;4.38;;
46411;SDS011;32113;42.012;24.870;2024-03-22T06:54:23;9.35;;;4.30;;
46411;SDS011;32113;42.012;24.870;2024-03-22T06:56:48;8.23;;;4.15;;
46411;SDS011;32113;42.012;24.870;2024-03-22T06:59:14;7.45;;;4.60;;
46411;SDS011;32113;42.012;24.870;2024-03-22T07:01:39;9.70;;;4.40;;
46411;SDS011;32113;42.012;24.870;2024-03-22T07:04:05;7.68;;;4.60;;
46411;SDS011;32113;42.012;24.870;2024-03-22T07:06:30;7.20;;;4.80;;
46411;SDS011;32113;42.012;24.870;2024-03-22T07:08:55;7.90;;;5.65;;
46411;SDS011;32113;42.012;24.870;2024-03-22T07:11:21;13.52;;;7.40;;
46411;SDS011;32113;42.012;24.870;2024-03-22T07:13:47;18.00;;;9.80;;
46411;SDS011;32113;42.012;24.870;2024-03-22T07:16:12;14.98;;;9.57;;
46411;SDS011;32113;42.012;24.870;2024-03-22T07:18:38;20.13;;;10.57;;
46411;SDS011;32113;42.012;24.870;2024-03-22T07:21:04;27.25;;;10.18;;
46411;SDS011;32113;42.012;24.870;2024-03-22T07:23:29;16.63;;;9.55;;
46411;SDS011;32113;42.012;24.870;2024-03-22T07:25:55;25.23;;;9.48;;
46411;SDS011;32113;42.012;24.870;2024-03-22T07:28:20;23.60;;;10.00;;
46411;SDS011;32113;42.012;24.870;2024-03-22T07:30:46;17.27;;;9.98;;
46411;SDS011;32113;42.012;24.870;2024-03-22T07:33:12;20.65;;;10.45;;
46411;SDS011;32113;42.012;24.870;2024-03-22T07:35:38;19.40;;;11.20;;
46411;SDS011;32113;42.012;24.870;2024-03-22T07:38:04;21.17;;;10.88;;
46411;SDS011;32113;42.012;24.870;2024-03-22T07:40:30;16.95;;;11.70;;
46411;SDS011;32113;42.012;24.870;2024-03-22T07:42:55;17.48;;;11.27;;
46411;SDS011;32113;42.012;24.870;2024-03-22T07:45:21;22.15;;;11.80;;
46411;SDS011;32113;42.012;24.870;2024-03-22T07:47:46;19.23;;;10.23;;
46411;SDS011;32113;42.012;24.870;2024-03-22T07:50:12;19.33;;;10.38;;
46411;SDS011;32113;42.012;24.870;2024-03-22T07:52:38;15.75;;;9.50;;
46411;SDS011;32113;42.012;24.870;2024-03-22T07:55:03;17.08;;;9.65;;
46411;SDS011;32113;42.012;24.870;2024-03-22T07:57:29;16.48;;;9.05;;
46411;SDS011;32113;42.012;24.870;2024-03-22T07:59:57;16.20;;;9.40;;
46411;SDS011;32113;42.012;24.870;2024-03-22T08:02:23;17.90;;;9.35;;
46411;SDS011;32113;42.012;24.870;2024-03-22T08:04:49;18.67;;;9.65;;
46411;SDS011;32113;42.012;24.870;2024-03-22T08:07:14;17.85;;;10.63;;
46411;SDS011;32113;42.012;24.870;2024-03-22T08:09:40;15.40;;;9.38;;
46411;SDS011;32113;42.012;24.870;2024-03-22T08:12:05;15.80;;;8.98;;
46411;SDS011;32113;42.012;24.870;2024-03-22T08:14:31;22.20;;;9.90;;
46411;SDS011;32113;42.012;24.870;2024-03-22T08:16:57;17.50;;;11.30;;
46411;SDS011;32113;42.012;24.870;2024-03-22T08:19:22;24.77;;;11.40;;
46411;SDS011;32113;42.012;24.870;2024-03-22T08:21:48;15.82;;;10.35;;
46411;SDS011;32113;42.012;24.870;2024-03-22T08:24:14;21.67;;;10.45;;
46411;SDS011;32113;42.012;24.870;2024-03-22T08:26:39;14.60;;;9.27;;
46411;SDS011;32113;42.012;24.870;2024-03-22T08:29:05;13.20;;;9.75;;
46411;SDS011;32113;42.012;24.870;2024-03-22T08:31:30;13.32;;;8.25;;
46411;SDS011;32113;42.012;24.870;2024-03-22T08:33:55;16.80;;;9.20;;
46411;SDS011;32113;42.012;24.870;2024-03-22T08:36:21;15.95;;;9.77;;
46411;SDS011;32113;42.012;24.870;2024-03-22T08:38:48;20.02;;;8.77;;
46411;SDS011;32113;42.012;24.870;2024-03-22T08:41:14;16.23;;;9.68;;
46411;SDS011;32113;42.012;24.870;2024-03-22T08:43:39;15.02;;;9.10;;
46411;SDS011;32113;42.012;24.870;2024-03-22T08:46:05;13.25;;;8.82;;
46411;SDS011;32113;42.012;24.870;2024-03-22T08:48:30;13.00;;;9.35;;
46411;SDS011;32113;42.012;24.870;2024-03-22T08:50:55;14.27;;;8.80;;
46411;SDS011;32113;42.012;24.870;2024-03-22T08:53:21;13.95;;;9.60;;
46411;SDS011;32113;42.012;24.870;2024-03-22T08:55:47;15.80;;;10.52;;
46411;SDS011;32113;42.012;24.870;2024-03-22T08:58:13;17.52;;;10.05;;
46411;SDS011;32113;42.012;24.870;2024-03-22T09:00:43;16.50;;;9.80;;
46411;SDS011;32113;42.012;24.870;2024-03-22T09:03:09;18.25;;;8.82;;
46411;SDS011;32113;42.012;24.870;2024-03-22T09:05:34;23.45;;;9.95;;
46411;SDS011;32113;42.012;24.870;2024-03-22T09:08:00;13.30;;;8.88;;
46411;SDS011;32113;42.012;24.870;2024-03-22T09:10:26;20.75;;;8.77;;
46411;SDS011;32113;42.012;24.870;2024-03-22T09:12:51;23.90;;;9.13;;
46411;SDS011;32113;42.012;24.870;2024-03-22T09:15:17;13.75;;;7.43;;
46411;SDS011;32113;42.012;24.870;2024-03-22T09:17:42;11.50;;;8.05;;
46411;SDS011;32113;42.012;24.870;2024-03-22T09:20:08;17.42;;;8.70;;
46411;SDS011;32113;42.012;24.870;2024-03-22T09:22:34;22.02;;;9.13;;
46411;SDS011;32113;42.012;24.870;2024-03-22T09:25:00;12.85;;;8.13;;
46411;SDS011;32113;42.012;24.870;2024-03-22T09:27:25;10.60;;;7.95;;
46411;SDS011;32113;42.012;24.870;2024-03-22T09:29:50;11.82;;;7.85;;
46411;SDS011;32113;42.012;24.870;2024-03-22T09:32:17;12.18;;;7.25;;
46411;SDS011;32113;42.012;24.870;2024-03-22T09:34:43;13.68;;;7.10;;
46411;SDS011;32113;42.012;24.870;2024-03-22T09:37:08;12.88;;;7.18;;
46411;SDS011;32113;42.012;24.870;2024-03-22T09:39:34;12.35;;;7.28;;
46411;SDS011;32113;42.012;24.870;2024-03-22T09:42:00;11.48;;;7.28;;
46411;SDS011;32113;42.012;24.870;2024-03-22T09:44:30;13.40;;;7.40;;
46411;SDS011;32113;42.012;24.870;2024-03-22T09:46:58;19.05;;;7.85;;
46411;SDS011;32113;42.012;24.870;2024-03-22T09:49:24;12.30;;;8.15;;
46411;SDS011;32113;42.012;24.870;2024-03-22T09:51:50;12.23;;;7.38;;
46411;SDS011;32113;42.012;24.870;2024-03-22T09:54:16;12.07;;;6.53;;
46411;SDS011;32113;42.012;24.870;2024-03-22T09:56:42;11.65;;;6.95;;
46411;SDS011;32113;42.012;24.870;2024-03-22T09:59:09;13.57;;;7.53;;
46411;SDS011;32113;42.012;24.870;2024-03-22T10:01:37;8.65;;;6.38;;
46411;SDS011;32113;42.012;24.870;2024-03-22T10:04:04;18.13;;;6.43;;
46411;SDS011;32113;42.012;24.870;2024-03-22T10:06:30;11.13;;;6.05;;
46411;SDS011;32113;42.012;24.870;2024-03-22T10:09:00;17.30;;;7.05;;
46411;SDS011;32113;42.012;24.870;2024-03-22T10:11:28;11.90;;;5.20;;
46411;SDS011;32113;42.012;24.870;2024-03-22T10:13:54;12.40;;;5.65;;
46411;SDS011;32113;42.012;24.870;2024-03-22T10:16:23;7.30;;;5.07;;
46411;SDS011;32113;42.012;24.870;2024-03-22T10:18:48;9.48;;;5.82;;
46411;SDS011;32113;42.012;24.870;2024-03-22T10:21:16;8.63;;;5.43;;
46411;SDS011;32113;42.012;24.870;2024-03-22T10:23:43;11.85;;;5.03;;
46411;SDS011;32113;42.012;24.870;2024-03-22T10:26:09;5.85;;;4.82;;
46411;SDS011;32113;42.012;24.870;2024-03-22T10:28:35;8.40;;;4.13;;
46411;SDS011;32113;42.012;24.870;2024-03-22T10:31:00;8.93;;;4.05;;
46411;SDS011;32113;42.012;24.870;2024-03-22T10:33:27;10.75;;;4.32;;
46411;SDS011;32113;42.012;24.870;2024-03-22T10:35:54;9.68;;;3.67;;
46411;SDS011;32113;42.012;24.870;2024-03-22T10:38:20;10.73;;;4.25;;
46411;SDS011;32113;42.012;24.870;2024-03-22T10:40:46;10.68;;;4.28;;
46411;SDS011;32113;42.012;24.870;2024-03-22T10:43:13;9.27;;;4.00;;
46411;SDS011;32113;42.012;24.870;2024-03-22T10:45:42;9.75;;;3.53;;
46411;SDS011;32113;42.012;24.870;2024-03-22T10:48:11;9.80;;;3.70;;
46411;SDS011;32113;42.012;24.870;2024-03-22T10:50:40;7.70;;;3.25;;
46411;SDS011;32113;42.012;24.870;2024-03-22T10:53:11;5.95;;;2.97;;
46411;SDS011;32113;42.012;24.870;2024-03-22T10:55:41;7.13;;;2.97;;
46411;SDS011;32113;42.012;24.870;2024-03-22T10:58:14;5.22;;;3.10;;
46411;SDS011;32113;42.012;24.870;2024-03-22T11:00:42;7.13;;;3.15;;
46411;SDS011;32113;42.012;24.870;2024-03-22T11:03:10;5.90;;;2.58;;
46411;SDS011;32113;42.012;24.870;2024-03-22T11:05:47;5.28;;;3.25;;
46411;SDS011;32113;42.012;24.870;2024-03-22T11:08:22;10.40;;;3.70;;
46411;SDS011;32113;42.012;24.870;2024-03-22T11:10:49;6.05;;;3.60;;
46411;SDS011;32113;42.012;24.870;2024-03-22T11:13:15;9.13;;;3.83;;
46411;SDS011;32113;42.012;24.870;2024-03-22T11:15:41;8.48;;;3.17;;
46411;SDS011;32113;42.012;24.870;2024-03-22T11:18:07;6.85;;;3.15;;
46411;SDS011;32113;42.012;24.870;2024-03-22T11:20:32;10.68;;;3.95;;
46411;SDS011;32113;42.012;24.870;2024-03-22T11:23:03;4.65;;;3.03;;
46411;SDS011;32113;42.012;24.870;2024-03-22T11:25:33;19.40;;;4.20;;
46411;SDS011;32113;42.012;24.870;2024-03-22T11:27:59;5.38;;;2.72;;
46411;SDS011;32113;42.012;24.870;2024-03-22T11:30:26;7.37;;;3.30;;
46411;SDS011;32113;42.012;24.870;2024-03-22T11:32:53;4.88;;;2.85;;
46411;SDS011;32113;42.012;24.870;2024-03-22T11:35:19;4.82;;;3.10;;
46411;SDS011;32113;42.012;24.870;2024-03-22T11:37:44;5.15;;;3.10;;
46411;SDS011;32113;42.012;24.870;2024-03-22T11:40:10;6.97;;;3.58;;
46411;SDS011;32113;42.012;24.870;2024-03-22T11:42:40;10.40;;;4.05;;
46411;SDS011;32113;42.012;24.870;2024-03-22T11:45:10;7.72;;;3.70;;
46411;SDS011;32113;42.012;24.870;2024-03-22T11:47:37;8.32;;;3.33;;
46411;SDS011;32113;42.012;24.870;2024-03-22T11:50:02;6.35;;;3.60;;
46411;SDS011;32113;42.012;24.870;2024-03-22T11:52:28;7.72;;;4.10;;
46411;SDS011;32113;42.012;24.870;2024-03-22T11:54:54;8.25;;;4.32;;
46411;SDS011;32113;42.012;24.870;2024-03-22T11:57:23;9.55;;;4.63;;
46411;SDS011;32113;42.012;24.870;2024-03-22T11:59:49;9.80;;;4.20;;
46411;SDS011;32113;42.012;24.870;2024-03-22T12:02:16;8.63;;;4.47;;
46411;SDS011;32113;42.012;24.870;2024-03-22T12:04:42;6.00;;;3.88;;
46411;SDS011;32113;42.012;24.870;2024-03-22T12:07:14;8.18;;;3.88;;
46411;SDS011;32113;42.012;24.870;2024-03-22T12:09:41;7.43;;;4.30;;
46411;SDS011;32113;42.012;24.870;2024-03-22T12:12:08;5.85;;;3.65;;
46411;SDS011;32113;42.012;24.870;2024-03-22T12:17:01;4.68;;;3.25;;
46411;SDS011;32113;42.012;24.870;2024-03-22T12:19:27;11.30;;;3.57;;
46411;SDS011;32113;42.012;24.870;2024-03-22T12:21:53;9.52;;;2.97;;
46411;SDS011;32113;42.012;24.870;2024-03-22T12:24:18;4.90;;;3.28;;
46411;SDS011;32113;42.012;24.870;2024-03-22T12:26:43;6.78;;;3.20;;
46411;SDS011;32113;42.012;24.870;2024-03-22T12:29:09;6.28;;;3.00;;
46411;SDS011;32113;42.012;24.870;2024-03-22T12:31:37;9.30;;;2.63;;
46411;SDS011;32113;42.012;24.870;2024-03-22T12:34:02;7.85;;;2.88;;
46411;SDS011;32113;42.012;24.870;2024-03-22T12:36:28;3.55;;;2.80;;
46411;SDS011;32113;42.012;24.870;2024-03-22T12:38:53;3.33;;;2.60;;
46411;SDS011;32113;42.012;24.870;2024-03-22T12:41:19;4.60;;;3.03;;
46411;SDS011;32113;42.012;24.870;2024-03-22T12:43:44;4.90;;;3.20;;
46411;SDS011;32113;42.012;24.870;2024-03-22T12:46:10;4.13;;;2.70;;
46411;SDS011;32113;42.012;24.870;2024-03-22T12:48:35;5.22;;;3.00;;
46411;SDS011;32113;42.012;24.870;2024-03-22T12:51:01;6.18;;;2.80;;
46411;SDS011;32113;42.012;24.870;2024-03-22T12:53:26;5.13;;;2.83;;
46411;SDS011;32113;42.012;24.870;2024-03-22T12:55:52;6.95;;;2.60;;
46411;SDS011;32113;42.012;24.870;2024-03-22T12:58:17;5.30;;;2.50;;
46411;SDS011;32113;42.012;24.870;2024-03-22T13:00:43;5.65;;;2.92;;
46411;SDS011;32113;42.012;24.870;2024-03-22T13:03:08;7.03;;;3.03;;
46411;SDS011;32113;42.012;24.870;2024-03-22T13:05:35;12.57;;;3.00;;
46411;SDS011;32113;42.012;24.870;2024-03-22T13:08:00;6.28;;;3.40;;
46411;SDS011;32113;42.012;24.870;2024-03-22T13:10:26;5.40;;;2.90;;
46411;SDS011;32113;42.012;24.870;2024-03-22T13:12:51;4.28;;;2.88;;
46411;SDS011;32113;42.012;24.870;2024-03-22T13:15:17;5.78;;;2.42;;
46411;SDS011;32113;42.012;24.870;2024-03-22T13:17:42;6.70;;;2.80;;
46411;SDS011;32113;42.012;24.870;2024-03-22T13:20:08;5.82;;;2.63;;
46411;SDS011;32113;42.012;24.870;2024-03-22T13:22:36;8.02;;;3.00;;
46411;SDS011;32113;42.012;24.870;2024-03-22T13:25:02;4.13;;;2.40;;
46411;SDS011;32113;42.012;24.870;2024-03-22T13:27:31;8.18;;;2.97;;
46411;SDS011;32113;42.012;24.870;2024-03-22T13:29:57;6.93;;;2.50;;
46411;SDS011;32113;42.012;24.870;2024-03-22T13:32:23;4.22;;;2.55;;
46411;SDS011;32113;42.012;24.870;2024-03-22T13:34:48;3.20;;;2.38;;
46411;SDS011;32113;42.012;24.870;2024-03-22T13:37:16;5.38;;;3.13;;
46411;SDS011;32113;42.012;24.870;2024-03-22T13:39:42;4.22;;;2.60;;
46411;SDS011;32113;42.012;24.870;2024-03-22T13:42:07;3.90;;;3.15;;
46411;SDS011;32113;42.012;24.870;2024-03-22T13:44:34;6.13;;;3.10;;
46411;SDS011;32113;42.012;24.870;2024-03-22T13:46:59;5.22;;;2.50;;
46411;SDS011;32113;42.012;24.870;2024-03-22T13:49:25;6.20;;;2.63;;
46411;SDS011;32113;42.012;24.870;2024-03-22T13:51:50;4.22;;;2.70;;
46411;SDS011;32113;42.012;24.870;2024-03-22T13:54:16;8.02;;;3.20;;
46411;SDS011;32113;42.012;24.870;2024-03-22T13:56:41;10.63;;;3.47;;
46411;SDS011;32113;42.012;24.870;2024-03-22T13:59:07;9.93;;;3.22;;
46411;SDS011;32113;42.012;24.870;2024-03-22T14:01:37;9.60;;;2.67;;
46411;SDS011;32113;42.012;24.870;2024-03-22T14:04:03;4.47;;;2.63;;
46411;SDS011;32113;42.012;24.870;2024-03-22T14:06:32;3.35;;;2.40;;
46411;SDS011;32113;42.012;24.870;2024-03-22T14:08:58;3.88;;;2.30;;
46411;SDS011;32113;42.012;24.870;2024-03-22T14:11:28;7.28;;;2.50;;
46411;SDS011;32113;42.012;24.870;2024-03-22T14:13:55;4.47;;;1.90;;
46411;SDS011;32113;42.012;24.870;2024-03-22T14:16:22;9.43;;;2.70;;
46411;SDS011;32113;42.012;24.870;2024-03-22T14:18:47;11.40;;;2.67;;